createdAt,value
2023-01-30T00:01:27.218Z,9.50
2023-01-30T00:03:55.940Z,10.00
2023-01-30T00:06:24.736Z,10.00
2023-01-30T00:08:52.789Z,10.80
2023-01-30T00:11:21.754Z,10.50
2023-01-30T00:13:50.806Z,10.90
2023-01-30T00:16:18.914Z,10.40
2023-01-30T00:18:47.342Z,9.90
2023-01-30T00:21:15.731Z,10.40
2023-01-30T00:23:44.621Z,10.80
2023-01-30T00:26:13.208Z,9.70
2023-01-30T00:28:41.738Z,11.70
2023-01-30T00:31:13.257Z,11.40
2023-01-30T00:33:41.801Z,10.40
2023-01-30T00:36:10.493Z,9.80
2023-01-30T00:38:39.153Z,9.40
2023-01-30T00:41:10.912Z,9.50
2023-01-30T00:43:57.999Z,9.20
2023-01-30T00:46:51.078Z,8.60
2023-01-30T00:49:19.351Z,8.10
2023-01-30T00:51:47.627Z,9.60
2023-01-30T00:54:16.100Z,9.00
2023-01-30T00:56:44.295Z,8.80
2023-01-30T00:59:12.381Z,8.80
2023-01-30T01:01:40.766Z,9.20
2023-01-30T01:04:10.673Z,10.00
2023-01-30T01:06:44.146Z,8.60
2023-01-30T01:09:12.113Z,10.20
2023-01-30T01:11:41.684Z,10.80
2023-01-30T01:14:09.874Z,9.70
2023-01-30T01:16:37.962Z,11.20
2023-01-30T01:19:06.237Z,10.40
2023-01-30T01:21:35.718Z,10.60
2023-01-30T01:24:06.805Z,10.30
2023-01-30T01:26:35.340Z,10.50
2023-01-30T01:29:04.055Z,10.60
2023-01-30T01:31:33.080Z,10.40
2023-01-30T01:34:01.287Z,10.40
2023-01-30T01:36:52.136Z,10.60
2023-01-30T01:39:17.682Z,10.40
2023-01-30T01:41:45.891Z,10.40
2023-01-30T04:15:02.627Z,10.70
2023-01-30T04:17:45.620Z,9.70
2023-01-30T04:20:20.656Z,9.90
2023-01-30T04:22:52.080Z,9.50
2023-01-30T04:25:21.568Z,10.30
2023-01-30T04:27:49.947Z,9.70
2023-01-30T04:30:24.292Z,10.20
2023-01-30T04:32:57.576Z,9.70
2023-01-30T04:35:26.102Z,8.60
2023-01-30T04:37:54.588Z,9.90
2023-01-30T04:40:27.333Z,9.10
2023-01-30T04:42:56.619Z,8.60
2023-01-30T04:45:36.788Z,9.20
2023-01-30T04:48:05.359Z,9.30
2023-01-30T04:50:33.606Z,9.10
2023-01-30T04:53:01.796Z,9.00
2023-01-30T04:55:29.940Z,8.70
2023-01-30T04:57:57.965Z,9.40
2023-01-30T05:00:27.376Z,9.90
2023-01-30T05:03:01.711Z,9.50
2023-01-30T05:05:30.274Z,8.40
2023-01-30T05:07:58.838Z,9.30
2023-01-30T05:10:26.897Z,10.80
2023-01-30T05:12:55.846Z,9.90
2023-01-30T05:15:23.963Z,10.20
2023-01-30T05:17:52.246Z,12.20
2023-01-30T05:20:20.667Z,11.90
2023-01-30T05:22:51.182Z,11.40
2023-01-30T05:25:19.741Z,11.50
2023-01-30T05:27:48.029Z,10.80
2023-01-30T05:30:17.357Z,11.30
2023-01-30T05:32:45.614Z,11.30
2023-01-30T05:35:13.915Z,14.30
2023-01-30T05:37:42.503Z,12.30
2023-01-30T05:40:12.318Z,12.80
2023-01-30T05:42:40.334Z,15.70
2023-01-30T05:45:10.703Z,15.80
2023-01-30T05:47:39.236Z,13.70
2023-01-30T05:50:08.451Z,16.60
2023-01-30T05:52:36.379Z,16.10
2023-01-30T05:55:06.028Z,16.30
2023-01-30T05:57:34.218Z,14.60
2023-01-30T06:00:02.715Z,13.30
2023-01-30T06:02:41.756Z,14.80
2023-01-30T06:05:09.974Z,14.60
2023-01-30T06:07:38.455Z,12.60
2023-01-30T06:10:06.734Z,14.50
2023-01-30T06:12:35.208Z,14.70
2023-01-30T06:15:03.792Z,15.90
2023-01-30T06:17:33.937Z,16.20
2023-01-30T06:20:02.137Z,14.20
2023-01-30T06:22:30.472Z,15.80
2023-01-30T06:24:58.565Z,13.20
2023-01-30T06:27:27.895Z,13.10
2023-01-30T06:29:57.850Z,15.10
2023-01-30T06:32:26.238Z,13.40
2023-01-30T06:34:54.816Z,13.90
2023-01-30T06:37:23.504Z,14.60
2023-01-30T06:39:51.790Z,16.00
2023-01-30T06:42:20.018Z,16.20
2023-01-30T06:44:47.957Z,17.10
2023-01-30T06:47:16.025Z,15.80
2023-01-30T06:49:43.914Z,17.10
2023-01-30T06:52:12.241Z,14.60
2023-01-30T06:54:40.322Z,13.20
2023-01-30T06:57:08.341Z,13.00
2023-01-30T06:59:36.515Z,15.40
2023-01-30T07:02:04.749Z,12.00
2023-01-30T07:04:33.033Z,14.30
2023-01-30T07:07:01.053Z,16.10
2023-01-30T07:09:29.524Z,13.60
2023-01-30T07:11:57.810Z,12.20
2023-01-30T07:14:26.212Z,12.70
2023-01-30T07:16:54.719Z,14.50
2023-01-30T07:19:24.575Z,13.40
2023-01-30T07:21:52.587Z,15.80
2023-01-30T07:24:20.590Z,14.30
2023-01-30T07:26:49.216Z,14.00
2023-01-30T07:29:17.303Z,13.00
2023-01-30T07:31:45.352Z,12.70
2023-01-30T07:34:13.338Z,13.80
2023-01-30T07:36:41.319Z,13.30
2023-01-30T07:39:09.798Z,11.50
2023-01-30T07:41:38.367Z,11.10
2023-01-30T07:44:12.691Z,14.20
2023-01-30T07:46:40.814Z,14.50
2023-01-30T07:49:09.566Z,15.20
2023-01-30T07:51:37.598Z,12.50
2023-01-30T07:54:05.809Z,14.10
2023-01-30T07:56:35.511Z,14.60
2023-01-30T07:59:05.736Z,15.90
2023-01-30T08:01:33.741Z,14.00
2023-01-30T08:04:01.804Z,13.70
2023-01-30T08:06:30.967Z,15.50
2023-01-30T08:08:59.471Z,15.30
2023-01-30T08:11:28.864Z,10.00
2023-01-30T08:13:57.869Z,17.60
2023-01-30T08:16:26.300Z,18.20
2023-01-30T08:18:54.714Z,16.50
2023-01-30T08:21:22.881Z,14.80
2023-01-30T08:23:51.016Z,14.90
2023-01-30T08:26:19.186Z,14.00
2023-01-30T08:28:47.242Z,14.60
2023-01-30T08:31:15.759Z,10.90
2023-01-30T08:33:44.501Z,14.70
2023-01-30T08:36:12.570Z,14.20
2023-01-30T08:38:40.734Z,14.90
2023-01-30T08:41:09.761Z,16.80
2023-01-30T08:43:37.986Z,15.30
2023-01-30T08:46:06.046Z,16.00
2023-01-30T08:48:47.677Z,12.30
2023-01-30T08:51:17.127Z,15.40
2023-01-30T08:53:45.887Z,12.50
2023-01-30T08:56:13.957Z,13.50
2023-01-30T08:58:43.913Z,16.90
2023-01-30T09:01:12.133Z,12.90
2023-01-30T09:03:40.347Z,12.40
2023-01-30T09:06:08.890Z,14.70
2023-01-30T09:08:38.062Z,13.40
2023-01-30T09:13:43.370Z,14.40
2023-01-30T09:16:12.033Z,14.00
2023-01-30T09:18:42.015Z,11.00
2023-01-30T09:21:11.080Z,14.50
2023-01-30T09:23:39.370Z,12.90
2023-01-30T09:26:07.668Z,13.30
2023-01-30T09:28:35.776Z,13.20
2023-01-30T09:31:04.349Z,13.90
2023-01-30T09:33:34.132Z,14.90
2023-01-30T09:36:02.299Z,13.10
2023-01-30T09:38:30.397Z,14.40
2023-01-30T09:40:59.777Z,9.70
2023-01-30T09:44:05.330Z,7.80
2023-01-30T13:49:30.756Z,14.60
2023-01-30T13:52:10.290Z,12.20
2023-01-30T13:54:59.552Z,11.70
2023-01-30T13:57:47.829Z,12.00
2023-01-30T14:00:29.024Z,13.50
2023-01-30T14:03:06.081Z,14.30
2023-01-30T14:06:00.720Z,16.90
2023-01-30T14:08:50.477Z,14.50
2023-01-30T14:11:39.745Z,13.10
2023-01-30T14:14:22.839Z,13.80
2023-01-30T14:17:11.287Z,14.30
2023-01-30T14:19:43.500Z,13.40
2023-01-30T14:22:23.249Z,12.20
2023-01-30T14:25:23.163Z,10.40
2023-01-30T14:27:52.967Z,11.30
2023-01-30T14:30:43.259Z,12.50
2023-01-30T14:33:20.890Z,13.40
2023-01-30T14:35:59.091Z,13.30
2023-01-30T14:38:31.194Z,15.60
2023-01-30T14:40:59.596Z,15.40
2023-01-30T14:43:36.998Z,14.70
2023-01-30T14:46:08.616Z,15.40
2023-01-30T14:48:44.972Z,14.50
2023-01-30T14:51:20.833Z,16.80
2023-01-30T14:53:52.604Z,13.30
2023-01-30T14:56:36.652Z,17.30
2023-01-30T14:59:17.357Z,16.80
2023-01-30T15:02:04.616Z,14.90
2023-01-30T15:04:38.929Z,14.80
2023-01-30T15:07:16.788Z,14.90
2023-01-30T15:10:23.775Z,15.20
2023-01-30T15:13:19.173Z,13.50
2023-01-30T15:16:16.214Z,17.30
2023-01-30T15:19:03.980Z,15.20
2023-01-30T15:21:48.612Z,12.00
2023-01-30T15:24:21.214Z,16.00
2023-01-30T15:27:10.903Z,12.20
2023-01-30T15:30:04.033Z,12.80
2023-01-30T15:32:32.799Z,14.00
2023-01-30T15:35:21.875Z,18.00
2023-01-30T15:37:54.435Z,17.90
2023-01-30T15:40:27.655Z,16.50
2023-01-30T15:43:01.898Z,18.60
2023-01-30T15:45:35.915Z,12.30
2023-01-30T15:48:04.044Z,17.70
2023-01-30T15:50:32.536Z,20.60
2023-01-30T15:53:00.504Z,14.80
2023-01-30T15:55:32.684Z,19.90
2023-01-30T15:58:06.183Z,18.40
2023-01-30T16:00:36.422Z,15.20
2023-01-30T16:03:05.536Z,16.60
2023-01-30T16:05:33.493Z,11.30
2023-01-30T16:08:10.649Z,12.20
2023-01-30T16:10:44.702Z,13.60
2023-01-30T16:13:13.605Z,16.00
2023-01-30T16:15:46.419Z,13.50
2023-01-30T16:18:35.488Z,13.20
2023-01-30T16:21:36.799Z,9.80
2023-01-30T16:24:25.012Z,13.00
2023-01-30T16:26:59.327Z,12.30
2023-01-30T16:29:30.280Z,12.00
2023-01-30T16:31:58.779Z,11.70
2023-01-30T16:34:37.181Z,12.60
2023-01-30T16:37:07.855Z,12.40
2023-01-30T16:39:37.040Z,13.20
2023-01-30T16:42:28.417Z,14.70
2023-01-30T16:45:40.245Z,12.90
2023-01-30T16:48:18.375Z,10.10
2023-01-30T16:50:48.112Z,11.80
2023-01-30T16:53:18.821Z,13.80
2023-01-30T16:56:05.783Z,12.80
2023-01-30T16:58:35.989Z,15.40
2023-01-30T17:01:07.965Z,15.70
2023-01-30T17:03:38.444Z,14.20
2023-01-30T17:06:16.373Z,12.50
2023-01-30T17:08:53.981Z,13.80
2023-01-30T17:11:29.107Z,13.10
2023-01-30T17:14:26.310Z,8.60
2023-01-30T17:17:00.920Z,11.90
2023-01-30T17:19:29.378Z,13.40
2023-01-30T17:21:58.660Z,12.30
2023-01-30T17:24:27.254Z,10.30
2023-01-30T17:27:00.361Z,13.00
2023-01-30T17:29:41.909Z,11.20
2023-01-30T17:32:11.861Z,12.20
2023-01-30T17:34:41.714Z,12.60
2023-01-30T17:37:24.169Z,12.20
2023-01-30T17:39:52.643Z,12.40
2023-01-30T17:42:22.512Z,13.10
2023-01-30T17:44:50.883Z,10.80
2023-01-30T17:47:18.793Z,13.00
2023-01-30T17:49:48.552Z,12.40
2023-01-30T17:52:18.990Z,9.60
2023-01-30T22:08:58.451Z,27.40
2023-01-30T22:11:42.264Z,25.80
2023-01-30T22:14:12.581Z,23.40
2023-01-30T22:16:39.793Z,28.30
2023-01-30T22:19:06.426Z,27.20
2023-01-30T22:21:35.358Z,27.20
2023-01-30T22:24:03.019Z,29.40
2023-01-30T22:26:29.850Z,26.80
2023-01-30T22:28:58.061Z,29.50
2023-01-30T22:31:26.075Z,25.30
2023-01-30T22:33:54.915Z,27.90
2023-01-30T22:36:26.505Z,29.70
2023-01-30T22:38:53.266Z,30.90
2023-01-30T22:41:21.569Z,28.30
2023-01-30T22:43:55.825Z,27.30
2023-01-30T22:46:24.502Z,30.20
2023-01-30T22:48:51.429Z,27.00
2023-01-30T22:51:25.694Z,27.10
2023-01-30T22:53:54.525Z,30.90
2023-01-30T22:56:22.921Z,31.40
2023-01-30T22:58:49.646Z,29.80
2023-01-30T23:01:20.913Z,28.80
2023-01-30T23:03:52.586Z,29.00
2023-01-30T23:06:19.215Z,25.70
2023-01-30T23:08:47.559Z,29.30
2023-01-30T23:11:22.112Z,31.40
2023-01-30T23:13:50.356Z,31.50
2023-01-30T23:16:18.297Z,30.70
2023-01-30T23:19:01.002Z,30.60
2023-01-30T23:21:30.962Z,32.40
2023-01-30T23:24:02.101Z,20.70
2023-01-30T23:26:33.786Z,29.30
2023-01-30T23:29:02.102Z,32.60
2023-01-30T23:31:31.742Z,31.00
2023-01-30T23:34:01.052Z,30.30
2023-01-30T23:36:27.990Z,30.20
2023-01-30T23:38:55.558Z,31.10
2023-01-30T23:41:24.243Z,30.90
2023-01-30T23:43:51.236Z,31.30
2023-01-30T23:46:24.705Z,32.90
